Terminal Aerodrome Forecast
Issued by NWS Omaha/Valley, NE

Home | Current Version | Previous Version | Text Only | Print | Product List | Glossary On
Versions: 1 2 3 4 5 6 7 8 9 10 11 12 13 14
000
FTUS43 KOAX 291127
TAFOFK
TAF
KOFK 291127Z 2912/3012 02005KT P6SM -RA BKN100
     FM291600 05006KT P6SM SCT070
     FM300200 11004KT P6SM SCT250=

USA.gov is the U.S. government's official web portal to all federal, state and local government web resources and services.